CST,Max TemperatureF,Mean TemperatureF,Min TemperatureF,Max Dew PointF,MeanDew PointF,Min DewpointF,Max Humidity, Mean Humidity, Min Humidity, Max Sea Level PressureIn, Mean Sea Level PressureIn, Min Sea Level PressureIn, Max VisibilityMiles, Mean VisibilityMiles, Min VisibilityMiles, Max Wind SpeedMPH, Mean Wind SpeedMPH, Max Gust SpeedMPH,PrecipitationIn, CloudCover, Events, WindDirDegrees
2013-2-1,35,16,-4,25,8,-9,92,72,55,30.34,30.11,29.92,10,10,10,22,7,30,0.00,4,,185
2013-2-2,41,29,17,34,22,14,93,80,65,30.16,30.09,29.99,10,9,4,28,10,37,0.00,5,,286
2013-2-3,53,36,19,30,23,10,93,66,38,30.19,29.95,29.74,10,10,10,24,11,29,0.00,1,,265
2013-2-4,30,24,17,25,18,14,93,83,74,30.03,29.91,29.75,10,10,10,15,9,20,0.00,5,,242
2013-2-5,44,36,28,28,27,25,93,72,53,30.03,29.91,29.74,10,10,10,22,12,28,0.00,1,,291
2013-2-6,48,39,30,34,30,27,93,74,50,30.02,29.88,29.79,10,10,10,14,9,,0.00,2,,158
2013-2-7,33,30,26,30,25,21,100,86,74,30.24,30.12,29.95,10,8,2,20,13,24,0.00,7,,332
2013-2-8,35,30,24,27,23,19,93,81,65,30.26,30.17,30.01,10,8,2,24,11,29,0.00,5,,134
2013-2-9,51,40,28,36,30,25,93,74,44,30.01,29.82,29.63,10,8,4,18,14,25,0.00,4,,144
2013-2-10,37,32,26,36,30,23,100,92,80,29.74,29.44,29.25,10,4,1,34,17,45,0.08,7,,345
2013-2-11,26,22,19,25,20,16,93,79,69,30.10,30.02,29.75,10,8,1,36,22,43,0.00,6,,280
2013-2-12,37,27,17,27,19,12,93,73,52,30.07,29.95,29.88,10,10,10,15,7,16,0.00,0,,246
2013-2-13,48,36,24,32,28,23,93,73,50,29.88,29.75,29.66,10,10,10,21,7,26,0.00,2,,248
2013-2-14,39,28,15,30,24,10,87,76,59,30.29,30.02,29.78,10,10,1,29,17,37,0.00,3,,301
2013-2-15,24,17,10,21,14,7,100,83,68,30.36,30.32,30.29,10,8,1,13,7,,0.00,4,,298
2013-2-16,33,22,10,28,20,7,100,86,74,30.28,30.07,29.96,10,10,10,12,5,,0.00,3,,149
2013-2-17,48,34,21,36,28,19,93,79,58,29.95,29.71,29.50,10,10,8,22,9,28,0.00,0,,132
2013-2-18,39,24,10,32,18,1,81,71,55,30.11,29.84,29.60,10,10,10,38,23,46,0.00,5,,307
2013-2-19,12,6,1,3,-2,-9,92,67,48,30.39,30.29,30.11,10,10,8,30,21,37,0.00,2,,310
2013-2-20,21,10,0,7,-3,-27,92,56,21,30.39,30.29,30.19,10,10,10,15,8,21,0.00,1,,89
2013-2-21,24,20,17,19,12,7,93,74,50,30.23,30.09,29.96,10,7,0,18,13,24,0.00,5,,62
2013-2-22,21,16,12,18,13,9,93,86,74,29.99,29.96,29.93,10,8,2,16,11,,0.00,1,,299
2013-2-23,23,12,1,18,9,-2,100,89,74,29.94,29.84,29.77,10,6,0,10,3,,0.00,0,,83
2013-2-24,26,19,12,21,16,10,100,91,74,30.09,29.98,29.84,5,3,1,9,3,,0.00,2,,321
2013-2-25,30,24,17,25,22,16,100,88,80,30.10,30.04,29.96,10,5,1,10,4,,0.00,3,,331
2013-2-26,26,22,19,25,20,18,100,92,80,29.99,29.94,29.89,8,4,0,18,8,,0.00,8,,357
2013-2-27,33,24,15,27,20,12,100,84,69,30.15,30.05,29.97,10,8,2,30,20,36,0.00,4,,312
2013-2-28,26,24,21,23,20,18,93,82,74,30.25,30.22,30.15,10,10,5,22,17,30,0.00,8,,323